»·PEaware :: AAL1443 KEGE-KDEN

AAL1443 :: KEGE-KDEN

FLIGHT INFORMATION

Flight Status: Arrived
Operator:
American Airlines
More flights by this operator :: More flights under this callsign
Pilot: Max W. (2591)
Aircraft: BOEING 737-800
(B738)
More flights by this aircraft type
Origin: KEGE Eagle Co Regl
United States
Destination: KDEN Denver Intl
United States
More flights between these airports :: More routes between these airports
Route: GYPSM5 RLG FRNCH FRNCH3
File this flight plan on PilotEdge
Remarks:
Altitude:
(Current/Filed)
22,000ft
Speed:
(Current/Filed)
450kts
Departed: 13-May-18 06:34 PM
Arrived: 13-May-18 07:09 PM
Distance/Time
Traveled:
104nm/0:35
Distance/Time
To Go:
Arrived

Flight Plot

Page will automatically refresh every two minutes.

Flight plan parsing failed; only flown route is shown


Map Options




Map Legend


Flown Route
Filed Route
Departure Airport
Arrival Airport
Navaid (VOR, NDB)
Fix

Horizontal Profiles

Position Reports

Time Latitude Longitude Heading Altitude Ground
Speed
13-May-18 18:15 39.641072 -106.911648 171 6522ft 0kts
13-May-18 18:16 39.641072 -106.911648 171 6522ft 0kts
13-May-18 18:17 39.641072 -106.911648 171 6522ft 0kts
13-May-18 18:18 39.641072 -106.911648 171 6522ft 0kts
13-May-18 18:19 39.641072 -106.911648 171 6522ft 0kts
13-May-18 18:20 39.641072 -106.911648 171 6522ft 0kts
13-May-18 18:21 39.641072 -106.911648 171 6522ft 0kts
13-May-18 18:22 39.641072 -106.911648 171 6522ft 0kts
13-May-18 18:23 39.641072 -106.911648 171 6522ft 0kts
13-May-18 18:24 39.641518 -106.911730 172 6522ft 0kts
13-May-18 18:25 39.641518 -106.911730 172 6522ft 0kts
13-May-18 18:26 39.641518 -106.911730 172 6522ft 0kts
13-May-18 18:27 39.641514 -106.911729 172 6522ft 0kts
13-May-18 18:28 39.641481 -106.912315 320 6522ft 0kts
13-May-18 18:29 39.641495 -106.912327 325 6522ft 0kts
13-May-18 18:30 39.641498 -106.912330 326 6522ft 0kts
13-May-18 18:31 39.642798 -106.905608 81 6522ft 0kts
13-May-18 18:32 39.643265 -106.901236 80 6522ft 30kts
13-May-18 18:33 39.644469 -106.900535 256 6522ft 0kts
13-May-18 18:34 39.641237 -106.930392 262 6560ft 175kts
13-May-18 18:35 39.613899 -106.986113 239 8977ft 187kts
13-May-18 18:36 39.643604 -107.034945 351 10289ft 248kts
13-May-18 18:37 39.714910 -107.065960 328 12497ft 283kts
13-May-18 18:38 39.790764 -107.047220 52 14438ft 334kts
13-May-18 18:39 39.830769 -106.930674 70 16527ft 365kts
13-May-18 18:40 39.870762 -106.805552 69 18931ft 383kts
13-May-18 18:41 39.917037 -106.677475 68 21163ft 399kts
13-May-18 18:42 39.965438 -106.544697 68 23078ft 415kts
13-May-18 18:43 40.027222 -106.417337 46 23141ft 422kts
13-May-18 18:44 40.121876 -106.320639 39 23142ft 438kts
13-May-18 18:45 40.218275 -106.223796 39 23159ft 437kts
13-May-18 18:46 40.314632 -106.125858 40 23180ft 437kts
13-May-18 18:47 40.410096 -106.025917 49 23180ft 447kts
13-May-18 18:48 40.436499 -105.879509 114 23202ft 410kts
13-May-18 18:49 40.404395 -105.736135 107 22916ft 413kts
13-May-18 18:50 40.382560 -105.597331 107 22010ft 360kts
13-May-18 18:51 40.379259 -105.463588 74 21203ft 410kts
13-May-18 18:52 40.419630 -105.321346 92 20494ft 388kts
13-May-18 18:53 40.373976 -105.217766 148 19242ft 319kts
13-May-18 18:54 40.310160 -105.136666 132 17174ft 322kts
13-May-18 18:55 40.256123 -105.043203 132 15779ft 316kts
13-May-18 18:56 40.203316 -104.951292 131 14204ft 320kts
13-May-18 18:57 40.147788 -104.854552 130 13654ft 330kts
13-May-18 18:58 40.095916 -104.764622 131 12621ft 296kts
13-May-18 18:59 40.050370 -104.686277 132 12209ft 245kts
13-May-18 19:00 40.010089 -104.617293 130 11044ft 245kts
13-May-18 19:01 39.970499 -104.544793 113 10942ft 232kts
13-May-18 19:02 39.965557 -104.469445 106 10040ft 195kts
13-May-18 19:03 39.928891 -104.424579 169 9197ft 189kts
13-May-18 19:04 39.879219 -104.437876 217 8253ft 188kts
13-May-18 19:05 39.843983 -104.488920 232 8036ft 188kts
13-May-18 19:06 39.839293 -104.555519 271 7385ft 181kts
13-May-18 19:07 39.840142 -104.618348 272 6445ft 167kts
13-May-18 19:08 39.840610 -104.679383 273 5568ft 168kts
13-May-18 19:09 39.841748 -104.696607 61 5439ft 29kts
13-May-18 19:10 39.848267 -104.688431 42 5439ft 30kts
13-May-18 19:11 39.852787 -104.683996 11 5439ft 16kts
13-May-18 19:12 39.853098 -104.677933 40 5439ft 0kts
13-May-18 19:13 39.853345 -104.677617 46 5438ft 0kts
13-May-18 19:14 39.853349 -104.677611 46 5439ft 0kts
13-May-18 19:15 39.853349 -104.677611 46 5439ft 0kts
13-May-18 19:16 39.853349 -104.677611 46 5439ft 0kts
13-May-18 19:17 39.853349 -104.677611 46 5439ft 0kts
13-May-18 19:18 39.853349 -104.677611 46 5439ft 0kts
13-May-18 19:19 39.853349 -104.677611 46 5439ft 0kts
13-May-18 19:20 39.853349 -104.677611 46 5439ft 0kts
13-May-18 19:21 39.853349 -104.677611 46 5439ft 0kts
13-May-18 19:22 39.853349 -104.677611 46 5439ft 0kts
13-May-18 19:23 39.853349 -104.677611 46 5439ft 0kts

Navigation Log

Ident Type
Flight plan parsing failed, navigation log unavailable